Mon Ta — WDG3264 — position and weather

sailwx.info

Track history (hours):
 
Tides and Currents Weather Stations Pressure Air Temp Water Temp Dewpoint Dewpoint Depression Visibility Wind Speed Wind Dir Waves Ship Positions

Mon Ta

Owner: LA Carriers, LLC, Cut Off, LA. More information available from US FCC via Universal Licensing System and Coast Guard Vessel Documentation Center.

Last reported at 2017-Sep-19 00:31 UTC. Time now 2017-Sep-24 19:18 UTC.
Position N 30°26' W 086°14'.

Length 23 m; draft 3 m.

Type: Towing. MMSI: 367524240.

Date/timePositionNaut miles runAvg speedWind from/ knotsBaromVisibWave heightAir tempDewpointWater temp
2017-Sep-19 00:31N 30°26' W 086°14'0 7.5
2017-Sep-19 00:30N 30°26' W 086°15'4 7.2
2017-Sep-19 00:00N 30°26' W 086°19'4 7.3
2017-Sep-18 23:30N 30°26' W 086°23'4 7.3
2017-Sep-18 23:00N 30°26' W 086°27'14 6.7
2017-Sep-18 20:54N 30°25' W 086°43'3 6.5
2017-Sep-18 20:31N 30°24' W 086°46'3 6.2
2017-Sep-18 20:01N 30°24' W 086°50'  
2017-Sep-16 10:56N 30°24' W 086°55'2 5.7
2017-Sep-16 10:31N 30°24' W 086°52'3 5.4
2017-Sep-16 10:00N 30°24' W 086°49'3 5.4
2017-Sep-16 09:30N 30°24' W 086°45'4 5.1
2017-Sep-16 08:44N 30°24' W 086°41'1 4.5
2017-Sep-16 08:26N 30°24' W 086°39'2 4.7
2017-Sep-16 07:58N 30°24' W 086°37'3 5.8
2017-Sep-16 07:30N 30°24' W 086°34'3 6.6
2017-Sep-16 07:01N 30°25' W 086°30'3 6.4
2017-Sep-16 06:30N 30°26' W 086°27'3 6.4
2017-Sep-16 06:00N 30°26' W 086°23'3 6.4
2017-Sep-16 05:30N 30°27' W 086°19'8 0.2
2017-Sep-14 18:20N 30°24' W 086°10'3 6.1
2017-Sep-14 17:54N 30°25' W 086°13'2 6.2
2017-Sep-14 17:30N 30°27' W 086°15'3 6.2
2017-Sep-14 17:00N 30°27' W 086°19'3 6.4
2017-Sep-14 16:30N 30°26' W 086°22'3 6.3
2017-Sep-14 16:00N 30°26' W 086°26'3 6.2
2017-Sep-14 15:29N 30°26' W 086°30'3 6.3
2017-Sep-14 15:00N 30°24' W 086°33'10 6.2
2017-Sep-14 13:29N 30°24' W 086°44'3 6.2
2017-Sep-14 13:00N 30°24' W 086°47'3 6.3
2017-Sep-14 12:31N 30°24' W 086°51'192 4.0
2017-Sep-12 12:45N 29°33' W 090°24'2 7.6
2017-Sep-12 12:31N 29°33' W 090°26'19 5.8
2017-Sep-12 09:15N 29°32' W 090°48'2 6.9
2017-Sep-12 09:00N 29°32' W 090°50'9 2.0
2017-Sep-12 04:22N 29°37' W 090°59'3 6.4
2017-Sep-12 03:58N 29°35' W 090°58'3 6.6
2017-Sep-12 03:30N 29°33' W 090°55'3 6.5
2017-Sep-12 03:01N 29°32' W 090°51'3 6.6
2017-Sep-12 02:30N 29°32' W 090°47'3 5.7
2017-Sep-12 02:00N 29°34' W 090°45'2 4.8
2017-Sep-12 01:30N 29°35' W 090°43'2 4.3
2017-Sep-12 01:00N 29°36' W 090°40'3 6.4
2017-Sep-12 00:30N 29°35' W 090°37'3 6.3
2017-Sep-12 00:01N 29°34' W 090°34'  
Track history (hours):
 
Tides and Currents Weather Stations Pressure Air Temp Water Temp Dewpoint Dewpoint Depression Visibility Wind Speed Wind Dir Waves Ship Positions

Mon Ta

Owner: LA Carriers, LLC, Cut Off, LA. More information available from US FCC via Universal Licensing System and Coast Guard Vessel Documentation Center.

Last reported at 2017-Sep-19 00:31 UTC. Time now 2017-Sep-24 19:18 UTC.
Position N 30°26' W 086°14'.

Length 23 m; draft 3 m.

Type: Towing. MMSI: 367524240.

Date/timePositionNaut miles runAvg speedWind from/ knotsBaromVisibWave heightAir tempDewpointWater temp
2017-Sep-19 00:31N 30°26' W 086°14'0 7.5
2017-Sep-19 00:30N 30°26' W 086°15'4 7.2
2017-Sep-19 00:00N 30°26' W 086°19'4 7.3
2017-Sep-18 23:30N 30°26' W 086°23'4 7.3
2017-Sep-18 23:00N 30°26' W 086°27'14 6.7
2017-Sep-18 20:54N 30°25' W 086°43'3 6.5
2017-Sep-18 20:31N 30°24' W 086°46'3 6.2
2017-Sep-18 20:01N 30°24' W 086°50'  
2017-Sep-16 10:56N 30°24' W 086°55'2 5.7
2017-Sep-16 10:31N 30°24' W 086°52'3 5.4
2017-Sep-16 10:00N 30°24' W 086°49'3 5.4
2017-Sep-16 09:30N 30°24' W 086°45'4 5.1
2017-Sep-16 08:44N 30°24' W 086°41'1 4.5
2017-Sep-16 08:26N 30°24' W 086°39'2 4.7
2017-Sep-16 07:58N 30°24' W 086°37'3 5.8
2017-Sep-16 07:30N 30°24' W 086°34'3 6.6
2017-Sep-16 07:01N 30°25' W 086°30'3 6.4
2017-Sep-16 06:30N 30°26' W 086°27'3 6.4
2017-Sep-16 06:00N 30°26' W 086°23'3 6.4
2017-Sep-16 05:30N 30°27' W 086°19'8 0.2
2017-Sep-14 18:20N 30°24' W 086°10'3 6.1
2017-Sep-14 17:54N 30°25' W 086°13'2 6.2
2017-Sep-14 17:30N 30°27' W 086°15'3 6.2
2017-Sep-14 17:00N 30°27' W 086°19'3 6.4
2017-Sep-14 16:30N 30°26' W 086°22'3 6.3
2017-Sep-14 16:00N 30°26' W 086°26'3 6.2
2017-Sep-14 15:29N 30°26' W 086°30'3 6.3
2017-Sep-14 15:00N 30°24' W 086°33'10 6.2
2017-Sep-14 13:29N 30°24' W 086°44'3 6.2
2017-Sep-14 13:00N 30°24' W 086°47'3 6.3
2017-Sep-14 12:31N 30°24' W 086°51'192 4.0
2017-Sep-12 12:45N 29°33' W 090°24'2 7.6
2017-Sep-12 12:31N 29°33' W 090°26'19 5.8
2017-Sep-12 09:15N 29°32' W 090°48'2 6.9
2017-Sep-12 09:00N 29°32' W 090°50'9 2.0
2017-Sep-12 04:22N 29°37' W 090°59'3 6.4
2017-Sep-12 03:58N 29°35' W 090°58'3 6.6
2017-Sep-12 03:30N 29°33' W 090°55'3 6.5
2017-Sep-12 03:01N 29°32' W 090°51'3 6.6
2017-Sep-12 02:30N 29°32' W 090°47'3 5.7
2017-Sep-12 02:00N 29°34' W 090°45'2 4.8
2017-Sep-12 01:30N 29°35' W 090°43'2 4.3
2017-Sep-12 01:00N 29°36' W 090°40'3 6.4
2017-Sep-12 00:30N 29°35' W 090°37'3 6.3
2017-Sep-12 00:01N 29°34' W 090°34'  

Dump ship's entire track history